Ashwaubenon, Wisconsin
Current Conditions -  °F | °C
As of 7:53 AM on Saturday 25 Oct 2014 (Local Time) from KGRB Reporting Station
Haze Haze  
Wind Chill: 52°   Ceiling: Unl
Heat Index: 52°   Visibility: 5mi
Dew Point: 49°   Wind: 7mph
Humidity: 89%   Direction: 260°W
Pressure: 29.84"   Gusts: NA
Location:  44.48°N, 88.07°W
Report Text: KGRB 251253Z 26006KT 5SM BR CLR 11/09 A2984 RMK AO2 SLP107 T01110094
Loading
Personal Weather Stations






























Interactive Weather Map
Tropical Storm Tracking
New forecast layout! Learn more

10-Day Weather Forecast

Advertisements
Track Severe Weather on mobile